Time;durP1;ratioP1;P1;durP2;ratioP2;P2;SDS_P1;SDS_P2;PMS_P1;PMS_P2;Temp;Humidity;BMP_temperature;BMP_pressure;BME280_temperature;BME280_humidity;BME280_pressure;Samples;Min_cycle;Max_cycle;Signal;HPM_P1;HPM_P2
2022/11/22 00:01:02;;;;;;;;;;;19.20;61.90;;;;;;4515571;31;20027;-65
2022/11/22 00:03:34;;;;;;;;;;;19.20;62.00;;;;;;4511526;31;20044;-66
2022/11/22 00:05:59;;;;;;;;;;;19.20;61.90;;;;;;4515060;31;20041;-66
2022/11/22 00:08:25;;;;;;;;;;;19.20;61.90;;;;;;4511166;31;20328;-66
2022/11/22 00:10:52;;;;;;;;;;;19.10;61.90;;;;;;4499217;31;20033;-67
2022/11/22 00:13:18;;;;;;;;;;;19.10;62.00;;;;;;4513811;31;20040;-66
2022/11/22 00:15:43;;;;;;;;;;;19.10;61.90;;;;;;4512647;31;20060;-66
2022/11/22 00:18:09;;;;;;;;;;;19.10;61.90;;;;;;4511690;31;20083;-66
2022/11/22 00:20:36;;;;;;;;;;;19.10;62.00;;;;;;4513341;31;20455;-66
2022/11/22 00:23:01;;;;;;;;;;;19.10;62.00;;;;;;4515064;31;20028;-67
2022/11/22 00:25:27;;;;;;;;;;;19.00;62.00;;;;;;4512003;31;20005;-66
2022/11/22 00:27:53;;;;;;;;;;;19.00;62.00;;;;;;4514690;31;20041;-67
2022/11/22 00:30:19;;;;;;;;;;;19.00;62.10;;;;;;4513045;31;20125;-67
2022/11/22 00:32:45;;;;;;;;;;;19.00;62.10;;;;;;4514576;31;20036;-66
2022/11/22 00:35:11;;;;;;;;;;;19.00;62.10;;;;;;4512997;31;19973;-65
2022/11/22 00:37:37;;;;;;;;;;;18.90;62.10;;;;;;4513149;31;20565;-66
2022/11/22 00:40:18;;;;;;;;;;;18.90;62.10;;;;;;4526951;31;20072;-66
2022/11/22 00:42:44;;;;;;;;;;;18.90;62.10;;;;;;4512560;31;20037;-66
2022/11/22 00:45:10;;;;;;;;;;;18.90;62.10;;;;;;4514417;31;20118;-67
2022/11/22 00:47:36;;;;;;;;;;;18.90;62.10;;;;;;4512980;31;20171;-67
2022/11/22 00:50:02;;;;;;;;;;;18.90;62.10;;;;;;4514142;31;20380;-66
2022/11/22 00:52:28;;;;;;;;;;;18.90;62.10;;;;;;4514023;31;20038;-65
2022/11/22 00:54:53;;;;;;;;;;;18.80;62.00;;;;;;4509478;31;20033;-66
2022/11/22 00:57:19;;;;;;;;;;;18.80;62.00;;;;;;4514669;31;20414;-65
2022/11/22 00:59:45;;;;;;;;;;;18.80;62.10;;;;;;4512201;31;20053;-65
2022/11/22 01:02:11;;;;;;;;;;;18.80;62.10;;;;;;4526268;31;20113;-66
2022/11/22 01:04:38;;;;;;;;;;;18.80;62.10;;;;;;4512473;31;20098;-66
2022/11/22 01:07:03;;;;;;;;;;;18.80;62.10;;;;;;4514171;31;20158;-66
2022/11/22 01:09:29;;;;;;;;;;;18.80;62.20;;;;;;4512897;31;20017;-65
2022/11/22 01:11:56;;;;;;;;;;;18.70;62.10;;;;;;4513116;31;20454;-66
2022/11/22 01:14:22;;;;;;;;;;;18.70;62.10;;;;;;4514708;31;20547;-66
2022/11/22 01:16:48;;;;;;;;;;;18.70;62.10;;;;;;4509359;31;20032;-66
2022/11/22 01:19:14;;;;;;;;;;;18.70;62.10;;;;;;4514890;31;20039;-66
2022/11/22 01:21:39;;;;;;;;;;;18.70;62.10;;;;;;4511696;31;20029;-66
2022/11/22 01:24:07;;;;;;;;;;;18.70;62.10;;;;;;4514307;31;20032;-66
2022/11/22 01:26:33;;;;;;;;;;;18.60;62.00;;;;;;4513900;31;20035;-65
2022/11/22 01:28:59;;;;;;;;;;;18.60;62.00;;;;;;4513377;31;20021;-65
2022/11/22 01:31:24;;;;;;;;;;;18.60;62.00;;;;;;4515176;31;20031;-65
2022/11/22 01:33:50;;;;;;;;;;;18.70;62.10;;;;;;4513019;31;20013;-65
2022/11/22 01:36:16;;;;;;;;;;;18.60;62.10;;;;;;4515037;31;20070;-65
2022/11/22 01:38:42;;;;;;;;;;;18.60;62.10;;;;;;4512766;31;20041;-65
2022/11/22 01:41:08;;;;;;;;;;;18.60;62.10;;;;;;4527060;31;20080;-65
2022/11/22 01:43:34;;;;;;;;;;;18.60;62.20;;;;;;4510048;31;20071;-65
2022/11/22 01:46:01;;;;;;;;;;;18.60;62.00;;;;;;4510405;31;20033;-65
2022/11/22 01:48:33;;;;;;;;;;;18.50;62.10;;;;;;4513573;31;20025;-65
2022/11/22 01:51:19;;;;;;;;;;;18.50;62.10;;;;;;4512667;31;20394;-65
2022/11/22 01:53:47;;;;;;;;;;;18.50;62.10;;;;;;4506114;31;20106;-65
2022/11/22 01:56:14;;;;;;;;;;;18.50;62.00;;;;;;4513218;31;20036;-65
2022/11/22 01:58:42;;;;;;;;;;;18.50;62.10;;;;;;4507315;31;20147;-65
2022/11/22 02:01:08;;;;;;;;;;;18.50;62.10;;;;;;4510123;31;19988;-65
2022/11/22 02:03:35;;;;;;;;;;;18.50;62.10;;;;;;4512708;31;20020;-65
2022/11/22 02:06:01;;;;;;;;;;;18.50;62.10;;;;;;4514609;31;20037;-65
2022/11/22 02:08:36;;;;;;;;;;;18.40;62.10;;;;;;4512181;31;20040;-65
2022/11/22 02:11:02;;;;;;;;;;;18.40;63.00;;;;;;4507463;31;20036;-66
2022/11/22 02:13:30;;;;;;;;;;;18.40;62.00;;;;;;4511118;31;20042;-66
2022/11/22 02:15:59;;;;;;;;;;;18.40;62.10;;;;;;4513128;31;20076;-66
2022/11/22 02:18:25;;;;;;;;;;;18.40;62.10;;;;;;4514152;31;20224;-66
2022/11/22 02:20:51;;;;;;;;;;;18.40;62.10;;;;;;4512308;31;20139;-65
2022/11/22 02:23:17;;;;;;;;;;;18.40;62.10;;;;;;4514314;31;20047;-66
2022/11/22 02:25:43;;;;;;;;;;;18.40;62.10;;;;;;4510935;31;20032;-65
2022/11/22 02:28:10;;;;;;;;;;;18.30;62.00;;;;;;4514038;31;20040;-65
2022/11/22 02:30:36;;;;;;;;;;;18.30;62.00;;;;;;4512961;31;20182;-65
2022/11/22 02:33:02;;;;;;;;;;;18.30;62.10;;;;;;4513348;31;20167;-65
2022/11/22 02:35:28;;;;;;;;;;;18.30;62.10;;;;;;4499919;31;20093;-65
2022/11/22 02:37:56;;;;;;;;;;;18.30;62.10;;;;;;4512182;31;20097;-65
2022/11/22 02:40:22;;;;;;;;;;;18.30;62.00;;;;;;4514345;31;20102;-65
2022/11/22 02:42:58;;;;;;;;;;;18.30;62.10;;;;;;4511984;31;20036;-65
2022/11/22 02:45:24;;;;;;;;;;;18.20;62.00;;;;;;4513946;31;20033;-65
2022/11/22 02:47:50;;;;;;;;;;;18.20;62.00;;;;;;4512926;31;20079;-65
2022/11/22 02:50:15;;;;;;;;;;;18.20;62.00;;;;;;4512982;31;20524;-65
2022/11/22 02:52:41;;;;;;;;;;;18.20;62.10;;;;;;4513855;31;20490;-65
2022/11/22 02:55:07;;;;;;;;;;;18.20;62.10;;;;;;4512066;31;20029;-65
2022/11/22 02:57:33;;;;;;;;;;;18.20;62.00;;;;;;4513040;31;20032;-65
2022/11/22 02:59:58;;;;;;;;;;;18.20;62.00;;;;;;4510782;31;20021;-65
2022/11/22 03:02:24;;;;;;;;;;;18.20;62.00;;;;;;4513814;31;20025;-65
2022/11/22 03:04:51;;;;;;;;;;;18.20;62.00;;;;;;4512538;31;20042;-65
2022/11/22 03:07:17;;;;;;;;;;;18.10;62.00;;;;;;4498832;31;20028;-65
2022/11/22 03:09:43;;;;;;;;;;;18.20;62.10;;;;;;4512410;31;20416;-65
2022/11/22 03:12:09;;;;;;;;;;;18.10;62.00;;;;;;4512087;31;20024;-65
2022/11/22 03:14:35;;;;;;;;;;;18.10;62.00;;;;;;4507487;31;20048;-65
2022/11/22 03:17:02;;;;;;;;;;;18.10;62.10;;;;;;4496108;31;20021;-65
2022/11/22 03:19:28;;;;;;;;;;;18.10;62.10;;;;;;4500566;31;20037;-65
2022/11/22 03:21:53;;;;;;;;;;;18.10;62.00;;;;;;4502432;31;20040;-65
2022/11/22 03:24:19;;;;;;;;;;;18.10;62.00;;;;;;4509535;31;20079;-65
2022/11/22 03:26:47;;;;;;;;;;;18.00;62.00;;;;;;4514712;31;19996;-65
2022/11/22 03:29:13;;;;;;;;;;;18.00;62.10;;;;;;4515093;31;20039;-65
2022/11/22 03:31:40;;;;;;;;;;;18.00;62.00;;;;;;4515705;31;20588;-65
2022/11/22 03:34:05;;;;;;;;;;;18.00;62.00;;;;;;4504644;31;20024;-65
2022/11/22 03:36:31;;;;;;;;;;;18.00;62.00;;;;;;4518489;31;20151;-65
2022/11/22 03:38:57;;;;;;;;;;;18.00;62.00;;;;;;4514456;31;20168;-65
2022/11/22 03:41:23;;;;;;;;;;;18.00;62.00;;;;;;4516578;31;20086;-65
2022/11/22 03:43:49;;;;;;;;;;;18.00;62.00;;;;;;4516217;31;20103;-64
2022/11/22 03:46:16;;;;;;;;;;;18.00;62.00;;;;;;4513676;31;20117;-65
2022/11/22 03:48:42;;;;;;;;;;;18.00;62.00;;;;;;4505410;31;20143;-65
2022/11/22 03:51:08;;;;;;;;;;;18.00;62.00;;;;;;4507975;31;20017;-65
2022/11/22 03:53:33;;;;;;;;;;;17.90;62.00;;;;;;4499599;31;20029;-65
2022/11/22 03:56:00;;;;;;;;;;;17.90;62.00;;;;;;4512906;31;20050;-65
2022/11/22 03:58:26;;;;;;;;;;;17.90;62.10;;;;;;4507403;31;20164;-65
2022/11/22 04:00:51;;;;;;;;;;;17.90;62.10;;;;;;4513512;31;19977;-65
2022/11/22 04:03:17;;;;;;;;;;;17.90;62.10;;;;;;4513870;31;20032;-64
2022/11/22 04:05:43;;;;;;;;;;;17.90;62.10;;;;;;4505046;31;20018;-65
2022/11/22 04:08:09;;;;;;;;;;;17.80;62.10;;;;;;4514619;31;20157;-65
2022/11/22 04:10:35;;;;;;;;;;;17.90;62.10;;;;;;4516341;31;20600;-65
2022/11/22 04:13:00;;;;;;;;;;;17.80;62.10;;;;;;4500026;31;20025;-65
2022/11/22 04:15:27;;;;;;;;;;;17.80;62.10;;;;;;4514837;31;20518;-65
2022/11/22 04:17:53;;;;;;;;;;;17.80;62.20;;;;;;4504134;31;20217;-65
2022/11/22 04:23:08;;;;;;;;;;;17.80;62.10;;;;;;4516010;31;20032;-65
2022/11/22 04:25:36;;;;;;;;;;;17.80;62.20;;;;;;4514105;31;20086;-65
2022/11/22 04:28:02;;;;;;;;;;;17.80;62.20;;;;;;4515814;31;20036;-65
2022/11/22 04:33:16;;;;;;;;;;;17.70;62.10;;;;;;4514609;31;20051;-65
2022/11/22 04:35:42;;;;;;;;;;;17.70;62.20;;;;;;4516090;31;20235;-65
2022/11/22 04:38:08;;;;;;;;;;;17.70;62.20;;;;;;4512968;31;20507;-65
2022/11/22 04:40:34;;;;;;;;;;;17.70;62.20;;;;;;4516047;31;20450;-65
2022/11/22 04:45:45;;;;;;;;;;;17.70;62.20;;;;;;4504361;31;20036;-65
2022/11/22 04:48:11;;;;;;;;;;;17.70;62.30;;;;;;4514415;31;19989;-64
2022/11/22 04:53:22;;;;;;;;;;;17.70;62.30;;;;;;4515527;31;20020;-65
2022/11/22 04:55:48;;;;;;;;;;;17.70;62.20;;;;;;4513703;31;20518;-65
2022/11/22 04:58:14;;;;;;;;;;;17.60;62.30;;;;;;4514584;31;20082;-65
2022/11/22 05:00:40;;;;;;;;;;;17.60;62.20;;;;;;4498762;31;20033;-65
2022/11/22 05:03:06;;;;;;;;;;;17.60;62.20;;;;;;4506924;31;20090;-65
2022/11/22 05:05:36;;;;;;;;;;;17.60;62.20;;;;;;4515275;31;20083;-65
2022/11/22 05:08:02;;;;;;;;;;;17.60;62.30;;;;;;4505402;31;20102;-65
2022/11/22 05:10:27;;;;;;;;;;;17.60;62.30;;;;;;4511576;31;20032;-65
2022/11/22 05:12:54;;;;;;;;;;;17.60;62.30;;;;;;4513521;31;20031;-65
2022/11/22 05:15:19;;;;;;;;;;;17.60;62.30;;;;;;4515161;31;20221;-65
2022/11/22 05:17:46;;;;;;;;;;;17.50;62.20;;;;;;4514168;31;20052;-64
2022/11/22 05:20:12;;;;;;;;;;;17.50;62.30;;;;;;4514458;31;20068;-65
2022/11/22 05:25:22;;;;;;;;;;;17.50;62.20;;;;;;4513271;31;20028;-65
2022/11/22 05:27:51;;;;;;;;;;;17.50;62.20;;;;;;4515229;31;20017;-65
2022/11/22 05:30:17;;;;;;;;;;;17.50;62.20;;;;;;4513219;31;20029;-65
2022/11/22 05:32:42;;;;;;;;;;;17.50;62.20;;;;;;4514952;31;20036;-65
2022/11/22 05:35:08;;;;;;;;;;;17.50;62.20;;;;;;4514390;31;19977;-65
2022/11/22 05:37:34;;;;;;;;;;;17.50;62.20;;;;;;4512485;31;20032;-65
2022/11/22 05:40:00;;;;;;;;;;;17.50;62.20;;;;;;4503808;31;20215;-65
2022/11/22 05:42:25;;;;;;;;;;;17.50;62.20;;;;;;4512997;31;20046;-65
2022/11/22 05:44:51;;;;;;;;;;;17.40;62.20;;;;;;4514545;31;20021;-65
2022/11/22 05:47:17;;;;;;;;;;;17.50;62.20;;;;;;4506585;31;20028;-65
2022/11/22 05:49:44;;;;;;;;;;;17.40;62.20;;;;;;4507641;31;20155;-65
2022/11/22 05:52:10;;;;;;;;;;;17.40;62.20;;;;;;4502785;31;19985;-64
2022/11/22 05:54:36;;;;;;;;;;;17.40;62.20;;;;;;4509705;31;20075;-65
2022/11/22 05:57:02;;;;;;;;;;;17.40;62.10;;;;;;4512018;31;20030;-65
2022/11/22 05:59:27;;;;;;;;;;;17.40;62.10;;;;;;4512704;31;20039;-65
2022/11/22 06:01:53;;;;;;;;;;;17.40;62.20;;;;;;4512220;31;20458;-65
2022/11/22 06:04:19;;;;;;;;;;;17.40;62.10;;;;;;4507421;31;20078;-65
2022/11/22 06:06:48;;;;;;;;;;;17.40;62.20;;;;;;4508505;31;20024;-65
2022/11/22 06:09:13;;;;;;;;;;;17.40;62.10;;;;;;4513446;31;20045;-65
2022/11/22 06:11:39;;;;;;;;;;;17.40;62.10;;;;;;4513295;31;20062;-65
2022/11/22 06:14:07;;;;;;;;;;;17.30;62.10;;;;;;4514256;31;20017;-64
2022/11/22 06:16:33;;;;;;;;;;;17.40;62.10;;;;;;4508572;31;20028;-65
2022/11/22 06:18:59;;;;;;;;;;;17.30;62.10;;;;;;4510695;31;20043;-65
2022/11/22 06:21:25;;;;;;;;;;;17.30;62.00;;;;;;4512189;31;20029;-65
2022/11/22 06:23:54;;;;;;;;;;;17.30;62.10;;;;;;4514304;31;20033;-65
2022/11/22 06:26:21;;;;;;;;;;;17.30;62.10;;;;;;4513272;31;20393;-65
2022/11/22 06:28:47;;;;;;;;;;;17.30;62.10;;;;;;4509325;31;20033;-65
2022/11/22 06:31:14;;;;;;;;;;;17.30;62.10;;;;;;4509336;31;20037;-65
2022/11/22 06:33:40;;;;;;;;;;;17.30;62.10;;;;;;4512419;31;20509;-65
2022/11/22 06:36:11;;;;;;;;;;;17.30;62.10;;;;;;4503416;31;20032;-66
2022/11/22 06:38:37;;;;;;;;;;;17.30;62.20;;;;;;4495259;31;20025;-65
2022/11/22 06:41:05;;;;;;;;;;;17.30;61.90;;;;;;4497145;31;20028;-64
2022/11/22 06:43:31;;;;;;;;;;;17.30;61.70;;;;;;4510857;31;20029;-64
2022/11/22 06:45:58;;;;;;;;;;;17.30;61.80;;;;;;4512567;31;20028;-65
2022/11/22 06:48:24;;;;;;;;;;;17.30;62.10;;;;;;4511479;31;20033;-64
2022/11/22 06:50:50;;;;;;;;;;;17.20;62.10;;;;;;4512001;31;20021;-64
2022/11/22 06:53:16;;;;;;;;;;;17.30;62.80;;;;;;4510218;31;20135;-64
2022/11/22 06:55:42;;;;;;;;;;;17.30;63.20;;;;;;4507355;31;20031;-64
2022/11/22 06:58:08;;;;;;;;;;;17.30;63.30;;;;;;4513989;31;20032;-65
2022/11/22 07:00:34;;;;;;;;;;;17.30;63.00;;;;;;4512221;31;20013;-65
2022/11/22 07:02:59;;;;;;;;;;;17.40;63.30;;;;;;4509039;31;20013;-65
2022/11/22 07:05:25;;;;;;;;;;;17.40;63.60;;;;;;4510296;31;20389;-65
2022/11/22 07:07:51;;;;;;;;;;;17.50;62.90;;;;;;4511673;31;20025;-65
2022/11/22 07:10:17;;;;;;;;;;;17.50;63.20;;;;;;4508618;31;20151;-65
2022/11/22 07:12:42;;;;;;;;;;;17.70;62.20;;;;;;4511437;31;20105;-65
2022/11/22 07:15:08;;;;;;;;;;;17.80;62.00;;;;;;4513591;31;20163;-65
2022/11/22 07:17:34;;;;;;;;;;;17.80;61.80;;;;;;4512265;31;20155;-65
2022/11/22 07:20:01;;;;;;;;;;;17.90;61.70;;;;;;4513127;31;20142;-67
2022/11/22 07:22:27;;;;;;;;;;;18.00;61.60;;;;;;4525696;31;19991;-66
2022/11/22 07:24:53;;;;;;;;;;;18.10;61.60;;;;;;4510232;31;20028;-67
2022/11/22 07:27:18;;;;;;;;;;;18.20;61.40;;;;;;4513838;31;20023;-65
2022/11/22 07:29:44;;;;;;;;;;;18.30;61.40;;;;;;4508946;31;20032;-64
2022/11/22 07:32:10;;;;;;;;;;;18.40;61.20;;;;;;4504189;31;20021;-64
2022/11/22 07:34:36;;;;;;;;;;;18.50;61.00;;;;;;4497755;31;20021;-65
2022/11/22 07:37:02;;;;;;;;;;;18.60;60.80;;;;;;4508535;31;20045;-64
2022/11/22 07:39:28;;;;;;;;;;;18.70;60.60;;;;;;4507123;31;19969;-64
2022/11/22 07:41:54;;;;;;;;;;;18.80;60.40;;;;;;4511955;31;20095;-67
2022/11/22 07:44:21;;;;;;;;;;;18.90;60.20;;;;;;4513637;31;20511;-68
2022/11/22 07:46:48;;;;;;;;;;;19.00;60.00;;;;;;4511029;31;20090;-65
2022/11/22 07:49:14;;;;;;;;;;;19.10;59.90;;;;;;4509809;31;20441;-64
2022/11/22 07:51:40;;;;;;;;;;;19.20;59.60;;;;;;4508308;31;20528;-66
2022/11/22 07:54:05;;;;;;;;;;;19.30;59.40;;;;;;4512049;31;20072;-65
2022/11/22 07:56:32;;;;;;;;;;;19.30;59.30;;;;;;4512669;31;19981;-66
2022/11/22 07:58:58;;;;;;;;;;;19.40;59.30;;;;;;4511582;31;20041;-67
2022/11/22 08:01:24;;;;;;;;;;;19.40;59.20;;;;;;4511723;31;20032;-67
2022/11/22 08:03:50;;;;;;;;;;;19.40;59.10;;;;;;4508724;31;20097;-70
2022/11/22 08:06:16;;;;;;;;;;;19.40;59.20;;;;;;4525315;31;20036;-67
2022/11/22 08:08:42;;;;;;;;;;;19.40;59.30;;;;;;4511363;31;20106;-66
2022/11/22 08:11:08;;;;;;;;;;;19.30;59.40;;;;;;4513251;31;20039;-66
2022/11/22 08:13:34;;;;;;;;;;;19.30;59.70;;;;;;4515580;31;19985;-65
2022/11/22 08:16:01;;;;;;;;;;;19.30;59.70;;;;;;4514605;31;20121;-65
2022/11/22 08:18:26;;;;;;;;;;;19.30;59.90;;;;;;4515051;31;20055;-65
2022/11/22 08:21:07;;;;;;;;;;;19.30;60.10;;;;;;4514026;31;20024;-66
2022/11/22 08:23:33;;;;;;;;;;;19.20;60.20;;;;;;4511727;31;20044;-66
2022/11/22 08:25:59;;;;;;;;;;;19.20;60.50;;;;;;4514505;31;20524;-65
2022/11/22 08:28:25;;;;;;;;;;;19.20;60.70;;;;;;4501382;31;20033;-65
2022/11/22 08:30:57;;;;;;;;;;;19.10;60.80;;;;;;4505624;31;20022;-65
2022/11/22 08:33:23;;;;;;;;;;;19.10;61.10;;;;;;4512526;31;20039;-65
2022/11/22 08:35:49;;;;;;;;;;;19.10;61.20;;;;;;4507164;31;20085;-65
2022/11/22 08:38:14;;;;;;;;;;;19.10;62.10;;;;;;4510677;31;20021;-65
2022/11/22 08:40:40;;;;;;;;;;;19.00;62.50;;;;;;4516035;31;20030;-64
2022/11/22 08:43:06;;;;;;;;;;;19.00;62.00;;;;;;4502026;31;20044;-66
2022/11/22 08:45:32;;;;;;;;;;;19.00;62.10;;;;;;4503976;31;20033;-65
2022/11/22 08:47:58;;;;;;;;;;;19.00;62.20;;;;;;4508023;31;19985;-65
2022/11/22 08:50:24;;;;;;;;;;;19.00;62.10;;;;;;4514030;31;20078;-66
2022/11/22 08:52:50;;;;;;;;;;;19.00;62.10;;;;;;4515805;31;20032;-66
2022/11/22 08:55:16;;;;;;;;;;;19.00;62.20;;;;;;4513542;31;20024;-65
2022/11/22 08:57:41;;;;;;;;;;;19.00;62.30;;;;;;4515679;31;20078;-66
2022/11/22 09:00:08;;;;;;;;;;;19.10;62.30;;;;;;4509169;31;20030;-67
2022/11/22 09:02:34;;;;;;;;;;;19.20;62.30;;;;;;4515495;31;20051;-68
2022/11/22 09:05:00;;;;;;;;;;;19.20;62.10;;;;;;4504539;31;20044;-67
2022/11/22 09:07:27;;;;;;;;;;;19.30;61.80;;;;;;4512683;31;20039;-68
2022/11/22 09:09:52;;;;;;;;;;;19.40;61.60;;;;;;4515383;31;20117;-68
2022/11/22 09:12:18;;;;;;;;;;;19.30;61.60;;;;;;4513266;31;20150;-69
2022/11/22 09:14:44;;;;;;;;;;;19.30;61.60;;;;;;4527739;31;20110;-69
2022/11/22 09:17:09;;;;;;;;;;;19.30;61.70;;;;;;4525423;31;20525;-69
2022/11/22 09:19:36;;;;;;;;;;;19.30;61.70;;;;;;4514917;31;20041;-71
2022/11/22 09:22:02;;;;;;;;;;;19.30;61.70;;;;;;4504235;31;20041;-68
2022/11/22 09:24:28;;;;;;;;;;;19.20;61.70;;;;;;4512312;31;20017;-68
2022/11/22 09:26:54;;;;;;;;;;;19.20;61.70;;;;;;4501005;31;20177;-69
2022/11/22 09:29:20;;;;;;;;;;;19.20;61.70;;;;;;4498671;31;20174;-68
2022/11/22 09:31:45;;;;;;;;;;;19.20;61.90;;;;;;4513895;31;20033;-68
2022/11/22 09:34:11;;;;;;;;;;;19.20;61.90;;;;;;4513177;31;20363;-68
2022/11/22 09:36:37;;;;;;;;;;;19.20;61.90;;;;;;4513230;31;20514;-69
2022/11/22 09:39:03;;;;;;;;;;;19.20;61.90;;;;;;4509944;31;20544;-68
2022/11/22 09:41:41;;;;;;;;;;;19.40;61.40;;;;;;4509670;31;20105;-68
2022/11/22 09:44:30;;;;;;;;;;;19.40;61.40;;;;;;4504316;31;20094;-64
2022/11/22 09:46:56;;;;;;;;;;;19.30;61.40;;;;;;4512882;31;20194;-65
2022/11/22 09:49:26;;;;;;;;;;;19.30;61.50;;;;;;4513953;31;20029;-65
2022/11/22 09:52:12;;;;;;;;;;;19.20;61.50;;;;;;4509809;31;20130;-65
2022/11/22 09:54:47;;;;;;;;;;;19.20;61.80;;;;;;4511936;31;20083;-66
2022/11/22 10:00:21;;;;;;;;;;;19.10;61.90;;;;;;5157221;26;21776;-80
2022/11/22 10:02:53;;;;;;;;;;;19.00;61.70;;;;;;4437882;32;20389;-80
2022/11/22 10:05:23;;;;;;;;;;;19.00;61.90;;;;;;4433757;32;20021;-81
2022/11/22 10:07:58;;;;;;;;;;;19.00;62.00;;;;;;4440412;32;20009;-81
2022/11/22 10:10:31;;;;;;;;;;;19.00;62.00;;;;;;4440676;32;20060;-79
2022/11/22 10:13:07;;;;;;;;;;;18.90;61.80;;;;;;4441034;32;19998;-80
2022/11/22 10:15:45;;;;;;;;;;;18.90;61.80;;;;;;4444768;32;20478;-77
2022/11/22 10:18:23;;;;;;;;;;;18.90;61.90;;;;;;4445528;32;20034;-75
2022/11/22 10:20:49;;;;;;;;;;;18.90;61.90;;;;;;4445063;32;20065;-72
2022/11/22 10:23:20;;;;;;;;;;;18.90;61.90;;;;;;4445038;32;19990;-78
2022/11/22 10:25:50;;;;;;;;;;;18.90;61.90;;;;;;4445060;32;19992;-79
2022/11/22 10:28:31;;;;;;;;;;;18.90;61.90;;;;;;4443913;32;20124;-79
2022/11/22 10:31:02;;;;;;;;;;;18.90;61.90;;;;;;4445427;32;20319;-78
2022/11/22 10:33:33;;;;;;;;;;;18.90;61.80;;;;;;4444381;32;19982;-80
2022/11/22 10:36:19;;;;;;;;;;;18.90;61.80;;;;;;4437315;32;20415;-78
2022/11/22 10:38:49;;;;;;;;;;;19.00;61.80;;;;;;4444465;32;20417;-79
2022/11/22 10:41:25;;;;;;;;;;;19.00;61.70;;;;;;4445499;32;20510;-78
2022/11/22 10:44:04;;;;;;;;;;;19.00;61.70;;;;;;4427244;32;19974;-78
2022/11/22 10:46:39;;;;;;;;;;;19.00;61.70;;;;;;4441314;32;19981;-79
2022/11/22 10:49:05;;;;;;;;;;;19.00;61.70;;;;;;4434605;32;19987;-77
2022/11/22 10:51:34;;;;;;;;;;;19.00;61.60;;;;;;4447582;32;19966;-78
2022/11/22 10:54:17;;;;;;;;;;;19.00;61.50;;;;;;4447846;32;19974;-80
2022/11/22 10:56:50;;;;;;;;;;;19.00;61.40;;;;;;4445217;32;20053;-82
2022/11/22 10:59:22;;;;;;;;;;;19.00;61.40;;;;;;4444077;32;20081;-82
2022/11/22 11:02:27;;;;;;;;;;;19.00;61.20;;;;;;4442831;32;20395;-82
2022/11/22 11:04:53;;;;;;;;;;;19.00;61.10;;;;;;4413576;32;19986;-82
2022/11/22 11:07:20;;;;;;;;;;;19.00;61.00;;;;;;4412593;32;19986;-81
2022/11/22 11:09:51;;;;;;;;;;;19.00;61.00;;;;;;4428480;32;20112;-79
2022/11/22 11:12:37;;;;;;;;;;;19.00;60.90;;;;;;4455571;32;19974;-80
2022/11/22 11:15:05;;;;;;;;;;;19.10;60.80;;;;;;4442768;32;20022;-80
2022/11/22 11:17:34;;;;;;;;;;;19.10;60.80;;;;;;4443828;32;19967;-77
2022/11/22 11:20:02;;;;;;;;;;;19.10;60.70;;;;;;4443761;32;19983;-77
2022/11/22 11:22:29;;;;;;;;;;;19.10;60.60;;;;;;4441551;32;20014;-81
2022/11/22 11:25:16;;;;;;;;;;;19.20;60.50;;;;;;4439996;32;20327;-80
2022/11/22 11:27:42;;;;;;;;;;;19.20;60.30;;;;;;4442068;32;20172;-79
2022/11/22 11:30:10;;;;;;;;;;;19.30;60.10;;;;;;4439192;32;19963;-79
2022/11/22 11:32:55;;;;;;;;;;;19.40;60.00;;;;;;4404457;32;20036;-81
2022/11/22 11:35:23;;;;;;;;;;;19.50;59.80;;;;;;4431108;32;20054;-79
2022/11/22 11:37:49;;;;;;;;;;;19.60;59.70;;;;;;4443891;32;20073;-79
2022/11/22 11:40:27;;;;;;;;;;;19.60;59.40;;;;;;4444210;32;19971;-79
2022/11/22 11:43:11;;;;;;;;;;;19.70;59.20;;;;;;4444474;32;19993;-78
2022/11/22 11:45:37;;;;;;;;;;;19.80;59.00;;;;;;4440728;32;20325;-81
2022/11/22 11:48:03;;;;;;;;;;;19.90;58.90;;;;;;4447017;32;20411;-78
2022/11/22 11:50:29;;;;;;;;;;;20.00;58.70;;;;;;4446428;32;20176;-78
2022/11/22 11:53:05;;;;;;;;;;;20.00;58.50;;;;;;4447743;32;19994;-79
2022/11/22 11:55:33;;;;;;;;;;;20.20;58.20;;;;;;4459579;32;20032;-79
2022/11/22 11:58:00;;;;;;;;;;;20.20;58.00;;;;;;4447270;32;20110;-79
2022/11/22 12:00:33;;;;;;;;;;;20.40;57.80;;;;;;4447480;32;20009;-77
2022/11/22 12:03:00;;;;;;;;;;;20.50;57.60;;;;;;4447333;32;20005;-76
2022/11/22 12:05:34;;;;;;;;;;;20.50;58.20;;;;;;4446945;32;19978;-77
2022/11/22 12:08:29;;;;;;;;;;;20.60;57.10;;;;;;4447086;32;20001;-76
2022/11/22 12:11:07;;;;;;;;;;;20.70;57.10;;;;;;4446696;32;20526;-77
2022/11/22 12:13:55;;;;;;;;;;;20.70;56.90;;;;;;4444734;32;20167;-76
2022/11/22 12:16:50;;;;;;;;;;;20.80;56.80;;;;;;4441002;32;19990;-79
2022/11/22 12:19:15;;;;;;;;;;;20.80;56.70;;;;;;4447258;32;20064;-77
2022/11/22 12:22:01;;;;;;;;;;;20.90;56.60;;;;;;4447664;32;19966;-77
2022/11/22 12:24:34;;;;;;;;;;;20.90;56.40;;;;;;4447337;32;20041;-77
2022/11/22 12:27:01;;;;;;;;;;;21.00;56.30;;;;;;4447371;32;19998;-77
2022/11/22 12:29:27;;;;;;;;;;;21.00;56.20;;;;;;4446319;32;19974;-78
2022/11/22 12:31:56;;;;;;;;;;;21.10;56.20;;;;;;4447448;32;19966;-77
2022/11/22 12:34:39;;;;;;;;;;;21.10;56.00;;;;;;4446845;32;20468;-77
2022/11/22 12:37:13;;;;;;;;;;;21.10;55.90;;;;;;4440890;32;19971;-77
2022/11/22 12:39:42;;;;;;;;;;;21.20;55.80;;;;;;4445789;32;20109;-77
2022/11/22 12:42:10;;;;;;;;;;;21.20;55.70;;;;;;4437324;32;20118;-77
2022/11/22 12:44:38;;;;;;;;;;;21.20;55.70;;;;;;4431139;32;23061;-78
2022/11/22 12:47:06;;;;;;;;;;;21.30;55.70;;;;;;4447033;32;19986;-77
2022/11/22 12:49:41;;;;;;;;;;;21.30;55.60;;;;;;4446949;32;20378;-77
2022/11/22 12:52:07;;;;;;;;;;;21.30;55.50;;;;;;4446708;32;20418;-76
2022/11/22 12:54:37;;;;;;;;;;;21.40;55.50;;;;;;4442492;32;19979;-77
2022/11/22 12:57:21;;;;;;;;;;;21.40;55.40;;;;;;4445765;32;20010;-81
2022/11/22 12:59:57;;;;;;;;;;;21.50;55.40;;;;;;4440388;32;20025;-77
2022/11/22 13:02:28;;;;;;;;;;;21.50;55.40;;;;;;4445097;32;20001;-75
2022/11/22 13:04:56;;;;;;;;;;;21.50;55.30;;;;;;4446396;32;20524;-78
2022/11/22 13:07:32;;;;;;;;;;;21.60;55.40;;;;;;4446638;32;20006;-77
2022/11/22 13:10:01;;;;;;;;;;;21.60;55.40;;;;;;4446829;32;19974;-83
2022/11/22 13:12:33;;;;;;;;;;;21.60;55.30;;;;;;4446600;32;19985;-76
2022/11/22 13:15:00;;;;;;;;;;;21.60;55.20;;;;;;4446419;32;20121;-76
2022/11/22 13:17:30;;;;;;;;;;;21.60;55.10;;;;;;4442711;32;20013;-76
2022/11/22 13:19:55;;;;;;;;;;;21.70;55.00;;;;;;4444605;32;20056;-78
2022/11/22 13:22:24;;;;;;;;;;;21.70;55.10;;;;;;4446625;32;20183;-79
2022/11/22 13:25:02;;;;;;;;;;;21.70;55.10;;;;;;4443358;32;19978;-80
2022/11/22 13:27:34;;;;;;;;;;;21.70;55.10;;;;;;4444953;32;19974;-80
2022/11/22 13:30:00;;;;;;;;;;;21.80;55.20;;;;;;4445187;32;19975;-69
2022/11/22 13:32:34;;;;;;;;;;;21.70;55.30;;;;;;4445690;32;20411;-79
2022/11/22 13:35:06;;;;;;;;;;;21.70;55.40;;;;;;4444412;32;20010;-79
2022/11/22 13:37:37;;;;;;;;;;;21.60;55.50;;;;;;4445542;32;20128;-79
2022/11/22 13:40:15;;;;;;;;;;;21.60;55.80;;;;;;4445627;32;20056;-80
2022/11/22 13:42:42;;;;;;;;;;;21.50;55.90;;;;;;4445019;32;19985;-80
2022/11/22 13:45:23;;;;;;;;;;;21.50;55.90;;;;;;4429906;32;35600;-82
2022/11/22 13:47:49;;;;;;;;;;;21.50;56.10;;;;;;4446018;32;20056;-79
2022/11/22 13:50:33;;;;;;;;;;;21.40;56.10;;;;;;4446100;32;20338;-78
2022/11/22 13:53:20;;;;;;;;;;;21.40;56.30;;;;;;4445940;32;19971;-78
2022/11/22 13:55:46;;;;;;;;;;;21.40;56.50;;;;;;4446177;32;19974;-77
2022/11/22 13:58:24;;;;;;;;;;;21.30;56.60;;;;;;4444396;32;20077;-80
2022/11/22 14:00:51;;;;;;;;;;;21.30;56.80;;;;;;4439303;32;20420;-73
2022/11/22 14:03:38;;;;;;;;;;;21.20;57.00;;;;;;4441617;32;20002;-75
2022/11/22 14:06:14;;;;;;;;;;;21.20;57.20;;;;;;4439977;32;20124;-74
2022/11/22 14:08:42;;;;;;;;;;;21.20;57.40;;;;;;4445809;32;20335;-73
2022/11/22 14:11:16;;;;;;;;;;;21.20;57.40;;;;;;4443284;32;20407;-74
2022/11/22 14:13:47;;;;;;;;;;;21.20;57.50;;;;;;4444698;32;20395;-74
2022/11/22 14:16:27;;;;;;;;;;;21.10;57.60;;;;;;4444791;32;20065;-74
2022/11/22 14:19:09;;;;;;;;;;;21.10;57.60;;;;;;4444648;32;20184;-75
2022/11/22 14:21:53;;;;;;;;;;;21.10;57.60;;;;;;4444478;32;19991;-76
2022/11/22 14:24:33;;;;;;;;;;;21.10;57.70;;;;;;4444543;32;20099;-75
2022/11/22 14:27:15;;;;;;;;;;;21.10;57.80;;;;;;4442332;32;20053;-75
2022/11/22 14:29:41;;;;;;;;;;;21.10;57.80;;;;;;4444617;32;20121;-74
2022/11/22 14:32:14;;;;;;;;;;;21.10;57.80;;;;;;4444399;32;19997;-75
2022/11/22 14:35:16;;;;;;;;;;;21.10;57.80;;;;;;4444946;32;20045;-75
2022/11/22 14:37:46;;;;;;;;;;;21.10;57.80;;;;;;4414220;32;20391;-74
2022/11/22 14:40:24;;;;;;;;;;;21.10;57.80;;;;;;4439040;32;20089;-75
2022/11/22 14:42:52;;;;;;;;;;;21.00;57.80;;;;;;4444407;32;19988;-74